Time;durP1;ratioP1;P1;durP2;ratioP2;P2;SDS_P1;SDS_P2;PMS_P1;PMS_P2;Temp;Humidity;BMP_temperature;BMP_pressure;BME280_temperature;BME280_humidity;BME280_pressure;Samples;Min_cycle;Max_cycle;Signal;HPM_P1;HPM_P2
2023/04/04 00:00:30;;;;;;;25.08;20.60;;;;;;;12.31;73.35;98225.47;4995224;28;20081;-76
2023/04/04 00:02:55;;;;;;;26.50;23.42;;;;;;;12.72;73.26;98280.41;4995230;28;20157;-76
2023/04/04 00:05:21;;;;;;;25.75;22.85;;;;;;;13.12;73.19;98327.59;4995150;28;20076;-75
2023/04/04 00:07:47;;;;;;;23.20;20.70;;;;;;;13.14;73.18;98341.44;4994860;28;20522;-75
2023/04/04 00:10:12;;;;;;;23.80;21.42;;;;;;;13.16;73.30;98342.81;4994826;28;20022;-75
2023/04/04 00:12:37;;;;;;;24.90;22.15;;;;;;;12.88;73.22;98284.28;4994816;28;20088;-75
2023/04/04 00:15:03;;;;;;;23.90;20.75;;;;;;;13.21;73.06;98326.28;4993503;28;20415;-76
2023/04/04 00:17:29;;;;;;;26.85;24.00;;;;;;;13.19;72.91;98326.50;4995152;28;20057;-75
2023/04/04 00:19:56;;;;;;;26.70;23.98;;;;;;;12.49;73.25;98229.94;4993622;28;20113;-74
2023/04/04 00:22:21;;;;;;;26.33;23.73;;;;;;;12.99;73.24;98286.19;4994751;28;20022;-75
2023/04/04 00:24:47;;;;;;;28.50;25.48;;;;;;;12.29;73.40;98178.06;4994678;28;20068;-75
2023/04/04 00:27:13;;;;;;;25.52;22.83;;;;;;;12.89;73.01;98262.88;4995136;28;20026;-76
2023/04/04 00:29:38;;;;;;;26.25;23.40;;;;;;;12.42;73.35;98185.03;5009899;28;20453;-76
2023/04/04 00:32:04;;;;;;;25.63;21.67;;;;;;;13.04;73.43;98284.47;4994677;28;20030;-76
2023/04/04 00:34:29;;;;;;;25.52;21.77;;;;;;;12.54;73.34;98203.63;4994738;28;20026;-75
2023/04/04 00:36:55;;;;;;;23.25;20.92;;;;;;;12.52;73.02;98203.03;4994586;28;20023;-75
2023/04/04 00:39:22;;;;;;;23.70;21.17;;;;;;;12.91;73.02;98271.41;4994466;28;20026;-75
2023/04/04 00:41:48;;;;;;;26.17;23.58;;;;;;;13.11;73.16;98310.06;4994855;28;20046;-76
2023/04/04 00:44:14;;;;;;;25.20;22.55;;;;;;;12.67;73.22;98248.50;4994529;28;20574;-75
2023/04/04 00:46:40;;;;;;;24.90;22.30;;;;;;;13.23;73.09;98348.06;4994445;28;20527;-75
2023/04/04 00:49:05;;;;;;;25.13;22.52;;;;;;;12.95;73.15;98312.31;4994392;28;20035;-75
2023/04/04 00:51:31;;;;;;;25.13;22.55;;;;;;;12.22;73.26;98209.09;4994281;28;20400;-75
2023/04/04 00:53:57;;;;;;;26.58;22.98;;;;;;;13.07;73.56;98349.47;4994254;28;20023;-75
2023/04/04 00:56:23;;;;;;;26.85;24.15;;;;;;;13.10;73.57;98350.84;4994226;28;20037;-75
2023/04/04 00:58:49;;;;;;;25.30;22.65;;;;;;;13.06;73.90;98350.50;4994076;28;20017;-75
2023/04/04 01:01:15;;;;;;;24.38;22.05;;;;;;;12.99;74.19;98347.13;4993973;28;20130;-75
2023/04/04 01:03:41;;;;;;;26.10;23.40;;;;;;;12.23;74.23;98215.19;4993993;28;20026;-75
2023/04/04 01:06:07;;;;;;;25.40;22.70;;;;;;;12.09;74.07;98191.53;4992853;28;20026;-75
2023/04/04 01:08:36;;;;;;;25.42;22.83;;;;;;;12.88;73.90;98308.94;4994042;28;20018;-76
2023/04/04 01:11:02;;;;;;;25.15;22.75;;;;;;;12.83;74.03;98294.75;4993964;28;20423;-76
2023/04/04 01:13:28;;;;;;;26.10;23.42;;;;;;;12.65;74.19;98269.91;4992569;28;20022;-76
2023/04/04 01:15:54;;;;;;;23.15;20.85;;;;;;;13.02;74.07;98321.00;4993950;28;20014;-75
2023/04/04 01:18:22;;;;;;;23.15;20.80;;;;;;;12.64;73.92;98243.66;4992597;28;20018;-76
2023/04/04 01:21:01;;;;;;;23.92;21.48;;;;;;;12.92;74.02;98285.47;4993768;28;20089;-75
2023/04/04 01:23:48;;;;;;;25.17;22.60;;;;;;;13.04;73.81;98296.91;4993717;28;20030;-75
2023/04/04 01:26:14;;;;;;;24.23;21.70;;;;;;;12.86;74.05;98255.38;4993682;28;20049;-76
2023/04/04 01:28:39;;;;;;;24.95;22.42;;;;;;;13.07;74.16;98293.81;4993705;28;20496;-75
2023/04/04 01:31:07;;;;;;;23.23;20.98;;;;;;;13.10;74.18;98285.41;4993575;28;20514;-75
2023/04/04 01:33:40;;;;;;;21.63;19.40;;;;;;;13.05;73.95;98275.50;4993294;28;20045;-76
2023/04/04 01:36:29;;;;;;;24.95;22.30;;;;;;;13.02;74.01;98275.94;4993444;28;20077;-75
2023/04/04 01:39:08;;;;;;;24.00;21.65;;;;;;;12.36;73.97;98193.88;4993532;28;20030;-76
2023/04/04 01:41:35;;;;;;;24.20;21.48;;;;;;;13.07;74.09;98282.41;4993415;28;20022;-76
2023/04/04 01:44:01;;;;;;;25.90;22.58;;;;;;;12.97;74.41;98272.34;4991801;28;20030;-75
2023/04/04 01:46:26;;;;;;;24.25;21.75;;;;;;;13.08;74.25;98287.47;4991965;28;20026;-76
2023/04/04 01:48:52;;;;;;;23.30;21.00;;;;;;;13.04;74.03;98287.13;4993564;28;20022;-76
2023/04/04 01:51:18;;;;;;;23.17;20.88;;;;;;;12.98;74.27;98295.97;4993199;28;20519;-76
2023/04/04 01:53:43;;;;;;;21.45;19.15;;;;;;;11.88;74.17;98115.22;4993084;28;20026;-75
2023/04/04 01:56:09;;;;;;;23.63;21.08;;;;;;;12.89;74.34;98270.81;4991832;28;20080;-75
2023/04/04 01:58:34;;;;;;;23.40;21.00;;;;;;;12.90;74.43;98268.97;4992802;28;20018;-75
2023/04/04 02:01:00;;;;;;;23.52;21.02;;;;;;;12.90;74.50;98272.44;4991538;28;20144;-75
2023/04/04 02:03:25;;;;;;;23.10;20.75;;;;;;;12.55;74.59;98231.72;4992883;28;20030;-75
2023/04/04 02:05:51;;;;;;;23.45;21.02;;;;;;;11.83;74.58;98115.09;4992861;28;20022;-75
2023/04/04 02:08:17;;;;;;;26.92;24.10;;;;;;;12.67;74.71;98251.94;4991635;28;20030;-75
2023/04/04 02:10:42;;;;;;;25.27;21.48;;;;;;;11.75;74.72;98110.88;4992829;28;20049;-76
2023/04/04 02:13:07;;;;;;;25.08;22.58;;;;;;;12.60;74.31;98223.91;4991459;28;20113;-76
2023/04/04 02:15:34;;;;;;;23.50;21.05;;;;;;;12.81;74.85;98252.59;4993334;28;20022;-76
2023/04/04 02:18:00;;;;;;;23.33;20.92;;;;;;;12.83;74.76;98239.13;4992113;28;20021;-75
2023/04/04 02:20:26;;;;;;;26.35;23.55;;;;;;;12.82;75.06;98224.25;4991212;28;20033;-75
2023/04/04 02:22:52;;;;;;;24.27;21.70;;;;;;;12.82;74.57;98214.47;4992646;28;20030;-75
2023/04/04 02:25:19;;;;;;;23.08;20.67;;;;;;;11.97;74.54;98078.75;4993110;28;20488;-76
2023/04/04 02:27:45;;;;;;;27.23;24.33;;;;;;;12.84;74.86;98223.00;4991260;28;20019;-76
2023/04/04 02:30:11;;;;;;;23.88;21.27;;;;;;;12.68;74.65;98205.91;4992348;28;20029;-76
2023/04/04 02:32:37;;;;;;;27.33;24.35;;;;;;;12.22;74.35;98129.72;4992432;28;20026;-75
2023/04/04 02:35:03;;;;;;;23.70;21.35;;;;;;;12.94;74.19;98225.91;4992418;28;20033;-75
2023/04/04 02:37:29;;;;;;;24.55;22.17;;;;;;;12.89;74.44;98214.38;4992631;28;20015;-75
2023/04/04 02:39:54;;;;;;;23.58;21.23;;;;;;;12.31;73.92;98144.25;4992525;28;20474;-76
2023/04/04 02:42:20;;;;;;;27.77;22.13;;;;;;;12.80;74.32;98208.59;4992400;28;20037;-76
2023/04/04 02:44:45;;;;;;;24.75;22.13;;;;;;;12.25;74.87;98134.56;4992083;28;20026;-75
2023/04/04 02:47:11;;;;;;;22.98;20.52;;;;;;;12.77;74.86;98190.50;4974768;28;20018;-76
2023/04/04 02:49:37;;;;;;;25.75;21.85;;;;;;;12.86;74.47;98214.84;4992324;28;20018;-75
2023/04/04 02:52:02;;;;;;;24.67;22.17;;;;;;;11.85;74.42;98054.03;4990912;28;20018;-76
2023/04/04 02:54:28;;;;;;;24.45;21.85;;;;;;;12.58;74.27;98163.22;4992160;28;20053;-75
2023/04/04 02:56:53;;;;;;;22.40;20.17;;;;;;;12.88;74.35;98216.22;4992114;28;20023;-76
2023/04/04 02:59:19;;;;;;;23.83;21.33;;;;;;;12.80;74.45;98199.84;4991793;28;20408;-75
2023/04/04 03:01:45;;;;;;;24.52;21.95;;;;;;;11.92;74.51;98066.19;4991942;28;20089;-76
2023/04/04 03:04:10;;;;;;;23.95;21.55;;;;;;;12.64;74.28;98178.25;4992021;28;20030;-76
2023/04/04 03:06:36;;;;;;;23.65;21.23;;;;;;;11.93;74.51;98077.56;4992001;28;20080;-76
2023/04/04 03:09:03;;;;;;;24.15;21.58;;;;;;;12.58;74.50;98171.19;4992014;28;20128;-76
2023/04/04 03:11:30;;;;;;;26.30;23.55;;;;;;;11.88;74.22;98059.69;4992218;28;20058;-75
2023/04/04 03:13:56;;;;;;;23.40;21.00;;;;;;;12.70;74.38;98189.78;4991945;28;20419;-75
2023/04/04 03:16:22;;;;;;;22.98;20.45;;;;;;;12.84;74.60;98215.06;4991900;28;20026;-76
2023/04/04 03:18:48;;;;;;;25.15;22.55;;;;;;;12.72;74.19;98209.72;4991822;28;20033;-75
2023/04/04 03:21:13;;;;;;;22.70;20.50;;;;;;;12.03;74.71;98102.47;4991752;28;20030;-76
2023/04/04 03:23:39;;;;;;;23.95;21.48;;;;;;;12.51;74.61;98159.88;4991793;28;20104;-76
2023/04/04 03:26:04;;;;;;;21.30;19.05;;;;;;;12.60;74.63;98189.47;4991901;28;20573;-76
2023/04/04 03:28:30;;;;;;;23.63;19.73;;;;;;;12.83;74.84;98217.94;4992163;28;20031;-76
2023/04/04 03:30:55;;;;;;;21.30;19.15;;;;;;;12.42;74.97;98158.56;4995863;28;20026;-77
2023/04/04 03:33:21;;;;;;;21.00;18.88;;;;;;;12.79;74.89;98216.75;4995492;28;20026;-76
2023/04/04 03:35:46;;;;;;;21.95;18.50;;;;;;;12.63;74.65;98196.97;4995485;28;20110;-76
2023/04/04 03:38:12;;;;;;;20.20;18.02;;;;;;;12.87;74.48;98258.84;4995731;28;20515;-76
2023/04/04 03:40:38;;;;;;;19.92;17.92;;;;;;;12.08;74.42;98109.72;4994212;28;20479;-75
2023/04/04 03:43:07;;;;;;;21.83;19.52;;;;;;;12.66;74.99;98209.81;4996372;28;20034;-76
2023/04/04 03:45:35;;;;;;;20.98;18.55;;;;;;;12.41;74.49;98162.25;4995619;28;20050;-76
2023/04/04 03:48:01;;;;;;;19.13;16.77;;;;;;;12.93;74.89;98234.91;4995530;28;20507;-76
2023/04/04 03:50:27;;;;;;;20.27;17.33;;;;;;;12.85;74.56;98226.47;4995720;28;20031;-75
2023/04/04 03:52:52;;;;;;;20.48;16.33;;;;;;;12.89;74.44;98227.63;4995182;28;20029;-76
2023/04/04 03:55:17;;;;;;;19.25;16.85;;;;;;;12.72;74.71;98214.22;4995213;28;20527;-75
2023/04/04 03:57:43;;;;;;;20.52;17.92;;;;;;;12.52;74.68;98182.66;4995253;28;20026;-76
2023/04/04 04:00:09;;;;;;;21.15;18.75;;;;;;;12.93;74.68;98240.19;4995023;28;20550;-75
2023/04/04 04:02:35;;;;;;;21.17;17.80;;;;;;;12.95;74.33;98247.91;4995336;28;20120;-76
2023/04/04 04:05:00;;;;;;;18.25;15.93;;;;;;;12.82;74.40;98219.78;4995291;28;20073;-76
2023/04/04 04:07:26;;;;;;;19.33;15.23;;;;;;;12.66;74.48;98200.03;4995107;28;20068;-75
2023/04/04 04:09:51;;;;;;;17.75;14.13;;;;;;;12.90;74.46;98232.69;4995009;28;20162;-76
2023/04/04 04:12:17;;;;;;;18.48;13.27;;;;;;;12.85;73.84;98232.56;4994875;28;20112;-76
2023/04/04 04:14:42;;;;;;;14.73;11.98;;;;;;;13.00;73.92;98248.88;4977308;28;20034;-76
2023/04/04 04:17:07;;;;;;;14.07;12.27;;;;;;;12.98;74.22;98250.13;4994845;28;20027;-76
2023/04/04 04:19:33;;;;;;;16.33;11.48;;;;;;;13.00;74.48;98251.50;4995370;28;20022;-76
2023/04/04 04:21:58;;;;;;;16.40;12.43;;;;;;;13.00;74.01;98246.22;4994751;28;20045;-75
2023/04/04 04:24:23;;;;;;;12.65;10.68;;;;;;;13.01;74.39;98244.38;4994544;28;20047;-76
2023/04/04 04:26:49;;;;;;;14.30;11.32;;;;;;;12.27;74.34;98143.06;4994704;28;20026;-76
2023/04/04 04:29:15;;;;;;;15.30;11.43;;;;;;;13.03;74.15;98252.91;4994697;28;20530;-76
2023/04/04 04:31:40;;;;;;;15.10;10.60;;;;;;;13.03;74.15;98248.41;4994691;28;20153;-76
2023/04/04 04:34:07;;;;;;;14.43;9.80;;;;;;;13.00;73.87;98242.75;4994692;28;20030;-76
2023/04/04 04:36:33;;;;;;;16.23;11.50;;;;;;;13.03;73.83;98253.72;4994701;28;20030;-76
2023/04/04 04:38:59;;;;;;;17.00;11.75;;;;;;;12.83;74.23;98223.22;4993296;28;20432;-75
2023/04/04 04:41:24;;;;;;;16.17;11.50;;;;;;;12.87;74.24;98233.16;4994280;28;20026;-76
2023/04/04 04:43:51;;;;;;;12.68;11.10;;;;;;;11.91;74.13;98077.78;4994608;28;20418;-76
2023/04/04 04:46:16;;;;;;;14.00;11.88;;;;;;;12.98;74.33;98252.78;4994363;28;20037;-75
2023/04/04 04:48:42;;;;;;;15.45;11.65;;;;;;;12.66;74.05;98200.03;4994463;28;20038;-76
2023/04/04 04:51:07;;;;;;;12.43;10.63;;;;;;;12.93;74.05;98247.34;4994454;28;20057;-76
2023/04/04 04:53:33;;;;;;;13.60;10.13;;;;;;;12.89;74.40;98243.53;4994100;28;20105;-76
2023/04/04 04:55:58;;;;;;;14.82;9.52;;;;;;;12.97;74.63;98256.44;4994088;28;20034;-76
2023/04/04 04:58:24;;;;;;;12.82;9.27;;;;;;;12.13;74.02;98124.94;4994219;28;20480;-76
2023/04/04 05:00:54;;;;;;;11.38;9.82;;;;;;;12.10;74.43;98123.56;4992864;28;20053;-76
2023/04/04 05:03:19;;;;;;;12.05;9.48;;;;;;;12.89;74.57;98230.28;4994385;28;20506;-76
2023/04/04 05:05:45;;;;;;;14.70;9.68;;;;;;;12.22;74.29;98127.06;4994319;28;20034;-75
2023/04/04 05:08:11;;;;;;;12.55;9.88;;;;;;;13.08;74.17;98255.69;4992972;28;20087;-76
2023/04/04 05:10:36;;;;;;;13.23;10.35;;;;;;;13.11;74.23;98257.88;4992930;28;20026;-75
2023/04/04 05:13:02;;;;;;;12.23;10.40;;;;;;;13.03;74.17;98237.81;4994333;28;20034;-75
2023/04/04 05:15:28;;;;;;;11.43;8.75;;;;;;;12.50;73.68;98149.50;4993485;28;20018;-75
2023/04/04 05:17:54;;;;;;;11.55;8.45;;;;;;;13.13;73.83;98236.47;4993550;28;20034;-75
2023/04/04 05:20:19;;;;;;;13.05;10.65;;;;;;;13.26;73.65;98247.69;4994334;28;20479;-75
2023/04/04 05:22:45;;;;;;;12.52;8.18;;;;;;;13.20;73.40;98221.28;4994981;28;20422;-75
2023/04/04 05:25:12;;;;;;;12.82;9.73;;;;;;;13.37;73.55;98254.06;4994743;28;20029;-75
2023/04/04 05:27:38;;;;;;;11.45;8.82;;;;;;;12.61;73.29;98124.91;4991565;28;20487;-75
2023/04/04 05:30:04;;;;;;;12.57;8.82;;;;;;;13.37;73.25;98243.47;5007335;28;20030;-75
2023/04/04 05:32:30;;;;;;;8.20;7.32;;;;;;;13.42;73.06;98250.75;4990480;28;20558;-75
2023/04/04 05:34:56;;;;;;;17.67;11.95;;;;;;;12.91;73.07;98181.34;4992809;28;20054;-75
2023/04/04 05:37:21;;;;;;;13.88;11.02;;;;;;;13.49;72.94;98270.84;4992062;28;20026;-75
2023/04/04 05:39:47;;;;;;;16.95;12.75;;;;;;;12.59;72.56;98132.28;4992677;28;20030;-75
2023/04/04 05:42:13;;;;;;;17.30;10.93;;;;;;;12.62;72.83;98151.16;4993164;28;20027;-76
2023/04/04 05:44:38;;;;;;;18.10;12.82;;;;;;;13.50;73.06;98304.28;4993360;28;20092;-76
2023/04/04 05:47:03;;;;;;;16.88;12.68;;;;;;;12.75;72.63;98146.75;4993217;28;20486;-76
2023/04/04 05:49:29;;;;;;;14.77;11.52;;;;;;;13.52;72.86;98267.72;4991804;28;20026;-76
2023/04/04 05:51:57;;;;;;;18.58;11.07;;;;;;;13.38;72.65;98244.28;4992405;28;20109;-76
2023/04/04 05:54:22;;;;;;;18.20;13.13;;;;;;;13.44;72.86;98260.09;4993099;28;20507;-77
2023/04/04 05:56:48;;;;;;;19.73;13.52;;;;;;;13.50;72.69;98259.19;4991262;28;20069;-76
2023/04/04 05:59:13;;;;;;;19.15;13.55;;;;;;;13.59;72.77;98264.97;4991661;28;20033;-76
2023/04/04 06:01:39;;;;;;;18.13;10.40;;;;;;;13.29;72.44;98211.97;4989485;28;20129;-76
2023/04/04 06:04:05;;;;;;;15.48;9.98;;;;;;;13.38;72.53;98229.19;4992157;28;20026;-76
2023/04/04 06:06:32;;;;;;;18.00;11.35;;;;;;;13.60;72.47;98285.97;4991306;28;20030;-76
2023/04/04 06:08:57;;;;;;;16.00;10.60;;;;;;;13.11;72.42;98178.38;5003339;28;20038;-76
2023/04/04 06:11:22;;;;;;;15.45;9.68;;;;;;;13.38;72.20;98226.56;4988985;28;20030;-76
2023/04/04 06:13:49;;;;;;;15.00;9.35;;;;;;;13.49;72.47;98231.06;4989816;28;20061;-76
2023/04/04 06:16:14;;;;;;;13.45;7.25;;;;;;;12.81;72.26;98117.50;4990783;28;20160;-76
2023/04/04 06:18:40;;;;;;;14.80;10.15;;;;;;;13.64;72.32;98239.38;4990469;28;20105;-76
2023/04/04 06:21:05;;;;;;;13.27;8.90;;;;;;;13.65;72.12;98251.59;4990454;28;20469;-76
2023/04/04 06:23:30;;;;;;;12.50;11.00;;;;;;;13.57;72.10;98232.56;4988506;28;20030;-76
2023/04/04 06:25:56;;;;;;;16.20;13.52;;;;;;;12.52;72.12;98062.72;5002546;28;20056;-76
2023/04/04 06:28:21;;;;;;;14.65;13.15;;;;;;;12.83;72.21;98109.34;4991758;28;20069;-76
2023/04/04 06:30:47;;;;;;;19.42;17.25;;;;;;;13.66;72.60;98242.59;4988710;28;20495;-75
2023/04/04 06:33:13;;;;;;;16.45;14.73;;;;;;;13.71;72.64;98243.75;5000006;28;20236;-76
2023/04/04 06:35:38;;;;;;;16.58;14.20;;;;;;;13.72;72.51;98245.38;4997332;28;20109;-77
2023/04/04 06:38:04;;;;;;;15.93;14.32;;;;;;;12.93;72.47;98130.78;4990768;28;20026;-77
2023/04/04 06:40:30;;;;;;;17.73;15.18;;;;;;;13.43;72.42;98188.75;4990753;28;20026;-76
2023/04/04 06:42:57;;;;;;;15.10;13.50;;;;;;;13.78;72.53;98239.97;4991920;28;20460;-76
2023/04/04 06:45:27;;;;;;;13.93;12.50;;;;;;;13.04;72.29;98117.53;4990685;28;20068;-77
2023/04/04 06:47:55;;;;;;;17.13;12.02;;;;;;;13.64;72.42;98222.66;4990411;28;20416;-77
2023/04/04 06:50:21;;;;;;;14.25;10.95;;;;;;;13.78;72.34;98247.91;4989568;28;20088;-77
2023/04/04 06:52:48;;;;;;;12.55;11.23;;;;;;;13.17;72.28;98153.66;5004140;28;20033;-77
2023/04/04 06:55:14;;;;;;;15.02;10.20;;;;;;;13.72;72.28;98222.31;4991104;28;20439;-77
2023/04/04 06:57:40;;;;;;;11.23;9.57;;;;;;;13.80;72.15;98219.31;4998410;28;20031;-77
2023/04/04 07:00:06;;;;;;;13.52;10.75;;;;;;;12.24;71.98;97990.03;5002591;28;20119;-77
2023/04/04 07:02:32;;;;;;;12.23;9.52;;;;;;;14.04;71.80;98233.38;4998849;28;20029;-76
2023/04/04 07:04:57;;;;;;;15.05;9.98;;;;;;;14.07;71.69;98232.09;4989111;28;20036;-76
2023/04/04 07:07:23;;;;;;;17.73;10.40;;;;;;;14.15;71.45;98240.56;4991568;28;21125;-77
2023/04/04 07:09:49;;;;;;;14.82;8.55;;;;;;;13.84;71.15;98187.81;4987873;28;20089;-77
2023/04/04 07:12:15;;;;;;;13.27;11.48;;;;;;;14.20;71.34;98239.84;5001361;28;20109;-77
2023/04/04 07:14:41;;;;;;;15.68;9.25;;;;;;;13.51;71.22;98133.53;4990651;28;20568;-77
2023/04/04 07:17:07;;;;;;;14.38;9.00;;;;;;;13.36;70.95;98099.50;4990100;28;20045;-77
2023/04/04 07:19:32;;;;;;;12.45;9.13;;;;;;;14.26;70.91;98215.03;4989068;28;20492;-78
2023/04/04 07:21:58;;;;;;;12.70;8.88;;;;;;;14.40;70.98;98229.66;5004773;28;20039;-77
2023/04/04 07:24:23;;;;;;;15.35;9.50;;;;;;;13.54;70.52;98085.34;5003993;28;20034;-77
2023/04/04 07:26:49;;;;;;;18.52;10.65;;;;;;;14.48;70.46;98231.16;4989619;28;20093;-77
2023/04/04 07:29:14;;;;;;;21.70;15.20;;;;;;;14.47;70.33;98233.03;4972931;28;20033;-77
2023/04/04 07:31:39;;;;;;;12.65;8.80;;;;;;;14.17;70.50;98189.88;4990799;28;20034;-77
2023/04/04 07:34:06;;;;;;;15.45;9.65;;;;;;;14.38;70.44;98225.63;4990430;28;20508;-77
2023/04/04 07:36:31;;;;;;;13.18;8.98;;;;;;;14.33;70.45;98231.63;4989651;28;20034;-77
2023/04/04 07:38:57;;;;;;;15.07;9.48;;;;;;;13.49;70.76;98106.44;4990681;28;20034;-77
2023/04/04 07:41:22;;;;;;;14.77;9.60;;;;;;;14.12;70.44;98208.31;4987681;28;20026;-77
2023/04/04 07:43:48;;;;;;;17.02;9.63;;;;;;;14.30;70.23;98232.09;4990740;28;20041;-77
2023/04/04 07:46:14;;;;;;;16.02;11.00;;;;;;;14.29;70.34;98247.22;4986963;28;20022;-76
2023/04/04 07:48:40;;;;;;;17.88;12.65;;;;;;;14.32;70.64;98246.75;4989737;28;20037;-77
2023/04/04 07:51:05;;;;;;;16.02;12.27;;;;;;;13.80;70.56;98166.25;5000876;28;20030;-77
2023/04/04 07:53:31;;;;;;;14.95;11.20;;;;;;;13.55;70.23;98091.44;4987099;28;20470;-77
2023/04/04 07:55:57;;;;;;;19.67;13.30;;;;;;;14.52;70.11;98227.81;4989975;28;20030;-77
2023/04/04 07:58:22;;;;;;;16.90;14.35;;;;;;;13.79;69.77;98102.81;4986899;28;20031;-77
2023/04/04 08:00:48;;;;;;;21.67;17.42;;;;;;;14.60;69.32;98227.44;4989589;28;20108;-77
2023/04/04 08:03:13;;;;;;;21.90;15.63;;;;;;;14.73;69.50;98239.63;4993467;28;20028;-77
2023/04/04 08:05:40;;;;;;;20.00;14.95;;;;;;;14.73;69.29;98230.84;4990873;28;20010;-77
2023/04/04 08:08:06;;;;;;;16.95;13.73;;;;;;;14.80;69.09;98231.53;4990232;28;20027;-77
2023/04/04 08:10:31;;;;;;;15.48;12.23;;;;;;;14.74;69.00;98227.16;4987424;28;20027;-77
2023/04/04 08:12:57;;;;;;;21.42;16.70;;;;;;;14.66;68.75;98208.94;4992828;28;20049;-77
2023/04/04 08:15:22;;;;;;;18.05;11.95;;;;;;;14.78;68.30;98228.28;4987007;28;20019;-77
2023/04/04 08:17:48;;;;;;;17.35;12.70;;;;;;;14.81;68.38;98228.63;4993108;28;20069;-77
2023/04/04 08:20:14;;;;;;;13.25;9.52;;;;;;;13.70;67.95;98070.56;4993954;28;20026;-76
2023/04/04 08:22:41;;;;;;;14.98;10.55;;;;;;;14.83;67.95;98242.50;4994316;28;20618;-77
2023/04/04 08:25:06;;;;;;;13.73;9.93;;;;;;;14.92;67.35;98225.16;4994309;28;20023;-76
2023/04/04 08:27:32;;;;;;;14.10;8.52;;;;;;;15.09;66.93;98237.66;4991701;28;20518;-76
2023/04/04 08:29:58;;;;;;;9.80;7.28;;;;;;;14.50;65.77;98109.56;4994090;28;20030;-76
2023/04/04 08:32:23;;;;;;;12.90;8.27;;;;;;;14.62;65.76;98123.59;4993134;28;20437;-76
2023/04/04 08:34:49;;;;;;;12.57;7.22;;;;;;;15.56;65.23;98244.31;4991214;28;20030;-78
2023/04/04 08:37:15;;;;;;;11.43;7.80;;;;;;;15.72;64.68;98223.34;4989428;28;20620;-76
2023/04/04 08:39:41;;;;;;;8.40;5.72;;;;;;;16.14;64.16;98235.13;4992727;28;20049;-77
2023/04/04 08:42:08;;;;;;;12.13;5.75;;;;;;;16.16;63.52;98224.22;4984212;28;20030;-77
2023/04/04 08:44:34;;;;;;;8.68;6.00;;;;;;;16.31;62.52;98242.25;4988750;28;20095;-76
2023/04/04 08:47:03;;;;;;;13.30;5.72;;;;;;;16.21;62.51;98238.41;4992145;28;20027;-77
2023/04/04 08:49:32;;;;;;;7.55;4.40;;;;;;;16.23;62.35;98267.47;4989524;28;20495;-76
2023/04/04 08:52:00;;;;;;;11.23;6.80;;;;;;;16.19;61.93;98256.50;4991195;28;20062;-76
2023/04/04 08:54:29;;;;;;;11.02;6.60;;;;;;;16.17;61.83;98239.16;4992235;28;20497;-77
2023/04/04 08:56:55;;;;;;;13.50;6.30;;;;;;;16.70;61.01;98256.41;4993326;28;20025;-76
2023/04/04 08:59:20;;;;;;;8.30;4.70;;;;;;;16.60;59.12;98267.72;4990715;28;20026;-77
2023/04/04 09:01:46;;;;;;;9.15;5.03;;;;;;;16.46;59.08;98267.28;4989640;28;20041;-77
2023/04/04 09:04:12;;;;;;;13.45;5.93;;;;;;;14.72;59.44;98012.19;4992946;28;20034;-76
2023/04/04 09:06:38;;;;;;;8.85;4.57;;;;;;;16.26;59.61;98256.31;4991727;28;20030;-76
2023/04/04 09:09:03;;;;;;;17.42;12.30;;;;;;;16.26;59.84;98268.81;4993427;28;20398;-77
2023/04/04 09:11:32;;;;;;;11.43;5.53;;;;;;;16.14;60.16;98256.44;4993474;28;20018;-76
2023/04/04 09:14:01;;;;;;;11.48;6.40;;;;;;;15.74;60.23;98197.28;4987372;28;20033;-77
2023/04/04 09:16:27;;;;;;;7.50;5.57;;;;;;;15.87;60.53;98220.91;5005962;28;20053;-77
2023/04/04 09:18:52;;;;;;;11.40;7.35;;;;;;;15.81;60.01;98208.56;4992688;28;20452;-77
2023/04/04 09:21:19;;;;;;;9.27;6.78;;;;;;;16.23;59.80;98256.81;4992766;28;20566;-77
2023/04/04 09:23:44;;;;;;;10.70;7.72;;;;;;;15.48;60.15;98151.63;4992564;28;20022;-77
2023/04/04 09:26:12;;;;;;;9.23;5.75;;;;;;;16.02;59.91;98212.31;4991010;28;20466;-77
2023/04/04 09:28:37;;;;;;;12.77;7.18;;;;;;;16.28;60.17;98240.91;4990809;28;20029;-77
2023/04/04 09:31:06;;;;;;;10.98;5.57;;;;;;;16.42;60.02;98271.47;4988670;28;20407;-77
2023/04/04 09:33:33;;;;;;;10.88;5.90;;;;;;;16.43;59.77;98264.28;4990460;28;20081;-77
2023/04/04 09:36:02;;;;;;;10.57;5.75;;;;;;;16.42;59.95;98258.16;4990003;28;20038;-76
2023/04/04 09:38:30;;;;;;;11.88;6.40;;;;;;;15.68;59.93;98143.19;4992045;28;20045;-77
2023/04/04 09:40:56;;;;;;;10.52;6.07;;;;;;;16.64;59.76;98252.84;4990280;28;20109;-76
2023/04/04 09:43:25;;;;;;;11.10;6.20;;;;;;;16.94;59.11;98248.94;4991733;28;20033;-76
2023/04/04 09:45:53;;;;;;;8.02;5.95;;;;;;;16.93;58.88;98233.97;4989747;28;20089;-77
2023/04/04 09:48:33;;;;;;;12.02;7.45;;;;;;;17.13;58.58;98244.88;4990451;28;20031;-78
2023/04/04 09:50:59;;;;;;;10.82;6.93;;;;;;;17.11;58.61;98250.47;4975489;28;20121;-77
2023/04/04 09:53:25;;;;;;;10.27;6.32;;;;;;;16.42;58.37;98137.47;4990130;28;20561;-76
2023/04/04 09:55:56;;;;;;;11.73;7.65;;;;;;;17.43;57.95;98249.69;4993647;28;20101;-76
2023/04/04 09:58:26;;;;;;;10.00;7.13;;;;;;;17.68;57.34;98252.59;4990038;28;20022;-76
2023/04/04 10:00:59;;;;;;;12.00;6.05;;;;;;;17.81;56.93;98253.22;4992130;28;20046;-76
2023/04/04 10:03:25;;;;;;;15.48;10.15;;;;;;;17.75;57.14;98241.72;4992885;28;20029;-77
2023/04/04 10:05:57;;;;;;;11.23;6.88;;;;;;;17.81;56.99;98250.56;4990767;28;20057;-77
2023/04/04 10:08:23;;;;;;;13.65;10.02;;;;;;;17.97;56.46;98209.56;4992570;28;20563;-76
2023/04/04 10:10:59;;;;;;;8.30;5.93;;;;;;;17.65;56.26;98172.19;4991777;28;20109;-76
2023/04/04 10:13:27;;;;;;;10.43;6.50;;;;;;;17.73;56.04;98183.22;4991971;28;20053;-77
2023/04/04 10:15:54;;;;;;;10.10;7.57;;;;;;;18.22;55.94;98246.31;4990863;28;20116;-77
2023/04/04 10:18:25;;;;;;;9.43;7.85;;;;;;;17.28;55.73;98127.66;4991789;28;20072;-77
2023/04/04 10:20:52;;;;;;;11.00;8.93;;;;;;;17.55;56.25;98225.50;4990565;28;20029;-77
2023/04/04 10:23:19;;;;;;;11.05;8.98;;;;;;;17.68;56.85;98241.13;4992301;28;20105;-77
2023/04/04 10:25:45;;;;;;;10.23;8.88;;;;;;;17.56;57.08;98237.78;4988788;28;20105;-77
2023/04/04 10:28:11;;;;;;;12.05;8.10;;;;;;;17.39;57.10;98233.38;4990928;28;20113;-77
2023/04/04 10:30:43;;;;;;;10.95;6.20;;;;;;;16.67;57.46;98147.63;4990834;28;20026;-77
2023/04/04 10:33:14;;;;;;;12.88;8.13;;;;;;;17.33;57.58;98231.72;4990225;28;20041;-77
2023/04/04 10:35:44;;;;;;;15.87;11.57;;;;;;;17.18;57.69;98220.94;4972568;28;20061;-77
2023/04/04 10:38:11;;;;;;;12.90;9.15;;;;;;;17.31;57.92;98233.84;4988415;28;20034;-76
2023/04/04 10:40:41;;;;;;;11.45;8.18;;;;;;;17.39;57.65;98229.91;4991503;28;20107;-77
2023/04/04 10:43:07;;;;;;;11.25;7.35;;;;;;;17.45;57.33;98228.91;4983253;28;20026;-77
2023/04/04 10:45:41;;;;;;;11.93;10.68;;;;;;;17.66;56.60;98227.19;4990724;28;20129;-77
2023/04/04 10:48:07;;;;;;;10.05;8.18;;;;;;;16.97;56.36;98115.91;4989791;28;20030;-77
2023/04/04 10:50:34;;;;;;;10.93;8.77;;;;;;;17.79;56.19;98205.44;4991170;28;20503;-77
2023/04/04 10:53:02;;;;;;;12.15;8.18;;;;;;;18.03;55.98;98224.56;4990850;28;20396;-77
2023/04/04 10:55:28;;;;;;;12.55;8.75;;;;;;;17.38;56.10;98156.28;4990421;28;20023;-77
2023/04/04 10:57:55;;;;;;;12.00;8.27;;;;;;;17.84;56.29;98232.19;5004574;28;20467;-77
2023/04/04 11:00:25;;;;;;;11.10;7.35;;;;;;;17.61;56.83;98209.28;4990171;28;20042;-77
2023/04/04 11:02:58;;;;;;;12.38;8.95;;;;;;;17.56;56.83;98222.59;4991156;28;20542;-77
2023/04/04 11:05:24;;;;;;;11.18;7.15;;;;;;;17.66;56.74;98225.34;4991666;28;20026;-76
2023/04/04 11:08:04;;;;;;;10.43;7.93;;;;;;;17.68;56.10;98222.44;4994937;28;20079;-77
2023/04/04 11:10:30;;;;;;;10.23;8.95;;;;;;;17.40;56.44;98184.31;4987914;28;20022;-76
2023/04/04 11:13:06;;;;;;;9.60;6.88;;;;;;;17.50;56.79;98217.47;4991047;28;20038;-77
2023/04/04 11:15:54;;;;;;;10.07;6.90;;;;;;;17.34;57.59;98224.53;4991188;28;20026;-77